createdAt,value
2022-10-19T00:01:59.627Z,8.79
2022-10-19T00:04:26.563Z,8.80
2022-10-19T00:06:53.400Z,8.80
2022-10-19T00:09:20.274Z,8.79
2022-10-19T00:11:49.243Z,8.81
2022-10-19T00:14:21.825Z,8.80
2022-10-19T00:16:51.226Z,8.78
2022-10-19T00:19:20.488Z,8.84
2022-10-19T00:21:47.317Z,8.77
2022-10-19T00:24:14.338Z,8.93
2022-10-19T00:26:41.411Z,8.91
2022-10-19T00:29:08.728Z,8.98
2022-10-19T00:31:35.671Z,9.02
2022-10-19T00:34:02.558Z,9.03
2022-10-19T00:36:32.326Z,9.02
2022-10-19T00:38:59.346Z,9.03
2022-10-19T00:41:29.397Z,9.04
2022-10-19T00:44:07.988Z,9.08
2022-10-19T00:46:36.980Z,9.12
2022-10-19T00:49:11.387Z,9.13
2022-10-19T00:51:41.508Z,9.16
2022-10-19T00:54:09.680Z,9.17
2022-10-19T00:56:40.304Z,9.19
2022-10-19T00:59:07.884Z,9.22
2022-10-19T01:01:35.342Z,9.25
2022-10-19T01:04:03.214Z,9.30
2022-10-19T01:06:30.180Z,9.34
2022-10-19T01:08:57.025Z,9.35
2022-10-19T01:11:48.083Z,9.39
2022-10-19T01:14:23.544Z,9.42
2022-10-19T01:16:53.299Z,9.46
2022-10-19T01:19:38.772Z,9.46
2022-10-19T01:22:10.130Z,9.52
2022-10-19T01:24:57.692Z,9.52
2022-10-19T01:27:41.698Z,9.50
2022-10-19T01:30:28.750Z,9.43
2022-10-19T01:33:03.988Z,9.46
2022-10-19T01:36:11.964Z,9.47
2022-10-19T01:38:57.550Z,9.41
2022-10-19T01:41:48.603Z,9.27
2022-10-19T01:44:42.192Z,9.34
2022-10-19T01:47:15.703Z,9.31
2022-10-19T01:50:10.263Z,9.22
2022-10-19T01:52:38.252Z,9.13
2022-10-19T01:55:05.707Z,9.05
2022-10-19T01:57:34.727Z,9.06
2022-10-19T02:00:07.403Z,9.03
2022-10-19T02:02:41.722Z,9.00
2022-10-19T02:05:08.973Z,9.00
2022-10-19T02:07:37.805Z,8.89
2022-10-19T02:10:05.333Z,8.93
2022-10-19T02:12:33.903Z,8.93
2022-10-19T02:15:05.853Z,8.90
2022-10-19T02:17:36.222Z,8.87
2022-10-19T02:20:04.072Z,8.71
2022-10-19T02:22:31.601Z,8.61
2022-10-19T02:24:58.566Z,8.44
2022-10-19T02:27:25.470Z,8.43
2022-10-19T02:29:54.537Z,8.49
2022-10-19T02:32:21.556Z,8.54
2022-10-19T02:34:48.417Z,8.47
2022-10-19T02:37:15.266Z,8.49
2022-10-19T02:39:42.316Z,8.48
2022-10-19T02:42:12.714Z,8.37
2022-10-19T02:45:08.578Z,8.37
2022-10-19T02:47:43.057Z,8.44
2022-10-19T02:50:12.980Z,8.45
2022-10-19T02:52:40.968Z,8.46
2022-10-19T02:55:08.949Z,8.48
2022-10-19T02:57:37.146Z,8.54
2022-10-19T03:00:06.985Z,8.46
2022-10-19T03:02:33.926Z,8.55
2022-10-19T03:05:00.714Z,8.53
2022-10-19T03:07:27.541Z,8.52
2022-10-19T03:09:54.345Z,8.35
2022-10-19T03:12:21.129Z,8.42
2022-10-19T03:14:47.923Z,8.36
2022-10-19T03:17:14.831Z,8.44
2022-10-19T03:19:41.985Z,8.40
2022-10-19T03:22:08.792Z,8.41
2022-10-19T03:24:36.124Z,8.33
2022-10-19T03:27:02.952Z,8.27
2022-10-19T03:29:29.746Z,8.39
2022-10-19T03:31:56.594Z,8.29
2022-10-19T03:34:23.529Z,8.25
2022-10-19T03:36:50.306Z,8.30
2022-10-19T03:39:17.454Z,8.32
2022-10-19T03:41:44.624Z,8.25
2022-10-19T03:44:11.974Z,8.15
2022-10-19T03:46:38.987Z,8.19
2022-10-19T03:49:06.240Z,8.12
2022-10-19T03:51:33.655Z,8.15
2022-10-19T03:54:03.079Z,8.22
2022-10-19T03:56:31.159Z,8.17
2022-10-19T03:59:00.015Z,8.16
2022-10-19T04:01:38.715Z,8.23
2022-10-19T04:04:07.870Z,8.22
2022-10-19T04:06:37.970Z,8.24
2022-10-19T04:09:05.977Z,8.15
2022-10-19T04:11:33.569Z,8.26
2022-10-19T04:14:00.885Z,8.27
2022-10-19T04:16:28.950Z,8.26
2022-10-19T04:18:56.237Z,8.23
2022-10-19T04:21:37.183Z,8.16
2022-10-19T04:24:06.889Z,8.17
2022-10-19T04:26:34.529Z,8.17
2022-10-19T04:29:01.757Z,8.16
2022-10-19T04:31:29.130Z,8.10
2022-10-19T04:33:56.770Z,8.04
2022-10-19T04:36:24.114Z,7.96
2022-10-19T04:38:51.038Z,7.68
2022-10-19T04:41:19.710Z,7.81
2022-10-19T04:43:46.922Z,7.67
2022-10-19T04:46:18.442Z,7.57
2022-10-19T04:48:46.828Z,7.67
2022-10-19T04:51:14.536Z,7.57
2022-10-19T04:53:42.294Z,7.55
2022-10-19T04:56:12.192Z,7.59
2022-10-19T04:58:39.000Z,7.60
2022-10-19T05:01:17.361Z,7.58
2022-10-19T05:03:44.526Z,7.56
2022-10-19T05:06:12.054Z,7.48
2022-10-19T05:08:39.106Z,7.50
2022-10-19T05:11:09.310Z,7.40
2022-10-19T05:13:36.215Z,7.48
2022-10-19T05:16:05.344Z,7.42
2022-10-19T05:18:32.673Z,7.50
2022-10-19T05:21:11.214Z,7.48
2022-10-19T05:23:38.441Z,7.55
2022-10-19T05:26:17.565Z,7.69
2022-10-19T05:28:48.358Z,7.73
2022-10-19T05:31:17.898Z,7.85
2022-10-19T05:33:45.027Z,8.54
2022-10-19T05:36:18.882Z,8.50
2022-10-19T05:38:46.898Z,9.01
2022-10-19T05:41:14.239Z,9.22
2022-10-19T05:43:41.988Z,9.69
2022-10-19T05:46:11.409Z,9.54
2022-10-19T05:48:39.110Z,9.70
2022-10-19T05:51:08.237Z,10.30
2022-10-19T05:53:35.525Z,10.28
2022-10-19T05:56:05.661Z,10.44
2022-10-19T05:58:32.822Z,10.58
2022-10-19T06:01:00.334Z,10.77
2022-10-19T06:03:27.632Z,10.79
2022-10-19T06:05:55.152Z,11.00
2022-10-19T06:08:22.868Z,11.24
2022-10-19T06:10:50.824Z,11.31
2022-10-19T06:13:18.902Z,11.49
2022-10-19T06:15:50.375Z,11.74
2022-10-19T06:18:17.334Z,11.92
2022-10-19T06:20:44.297Z,11.97
2022-10-19T06:23:11.091Z,12.06
2022-10-19T06:25:38.665Z,12.25
2022-10-19T06:28:05.787Z,12.52
2022-10-19T06:30:32.833Z,12.63
2022-10-19T06:33:00.053Z,12.83
2022-10-19T06:35:27.042Z,12.95
2022-10-19T06:37:56.666Z,13.00
2022-10-19T06:40:24.949Z,13.28
2022-10-19T06:42:51.913Z,13.53
2022-10-19T06:45:18.876Z,13.58
2022-10-19T06:50:17.956Z,13.63
2022-10-19T06:52:46.077Z,13.67
2022-10-19T06:55:12.950Z,13.70
2022-10-19T06:57:39.900Z,13.75
2022-10-19T07:00:08.305Z,13.89
2022-10-19T07:02:35.227Z,13.96
2022-10-19T07:05:06.053Z,14.13
2022-10-19T07:07:34.882Z,14.22
2022-10-19T07:10:06.993Z,14.28
2022-10-19T07:12:33.863Z,14.42
2022-10-19T07:15:00.695Z,14.53
2022-10-19T07:17:27.590Z,14.60
2022-10-19T07:19:55.035Z,14.67
2022-10-19T07:22:27.837Z,14.72
2022-10-19T07:24:55.389Z,14.89
2022-10-19T07:27:22.425Z,15.04
2022-10-19T07:29:50.555Z,15.23
2022-10-19T07:32:17.403Z,15.30
2022-10-19T07:34:44.191Z,15.43
2022-10-19T07:37:11.026Z,15.52
2022-10-19T07:39:38.333Z,15.40
2022-10-19T07:42:05.289Z,15.39
2022-10-19T07:44:32.047Z,15.28
2022-10-19T07:46:59.265Z,15.45
2022-10-19T07:49:26.128Z,15.52
2022-10-19T07:51:55.063Z,15.69
2022-10-19T07:54:23.692Z,15.87
2022-10-19T07:56:50.494Z,16.12
2022-10-19T07:59:17.388Z,16.35
2022-10-19T08:01:45.197Z,16.43
2022-10-19T08:06:58.866Z,16.82
2022-10-19T08:09:51.348Z,17.05
2022-10-19T08:12:15.441Z,17.20
2022-10-19T08:14:42.435Z,17.30
2022-10-19T08:17:11.944Z,17.35
2022-10-19T08:19:43.410Z,17.52
2022-10-19T08:22:10.679Z,17.60
2022-10-19T08:24:37.508Z,17.65
2022-10-19T08:27:04.555Z,17.62
2022-10-19T08:29:32.123Z,17.79
2022-10-19T08:31:59.585Z,17.88
2022-10-19T08:34:26.699Z,18.04
2022-10-19T08:36:53.524Z,18.35
2022-10-19T08:39:20.326Z,18.25
2022-10-19T08:41:59.390Z,18.53
2022-10-19T08:44:34.769Z,18.44
2022-10-19T08:47:33.205Z,18.45
2022-10-19T08:50:01.401Z,18.66
2022-10-19T08:52:34.617Z,19.00
2022-10-19T08:55:15.091Z,18.81
2022-10-19T08:58:26.167Z,19.08
2022-10-19T09:01:02.336Z,19.34
2022-10-19T09:03:54.975Z,19.46
2022-10-19T09:06:48.512Z,19.54
2022-10-19T09:09:18.692Z,19.75
2022-10-19T09:11:48.304Z,19.57
2022-10-19T09:14:40.898Z,19.49
2022-10-19T09:17:15.253Z,19.56
2022-10-19T09:19:44.225Z,19.75
2022-10-19T09:22:21.533Z,19.72
2022-10-19T09:25:09.636Z,19.68
2022-10-19T09:27:39.531Z,19.82
2022-10-19T09:30:28.071Z,19.77
2022-10-19T09:33:02.636Z,19.76
2022-10-19T09:35:36.825Z,20.05
2022-10-19T09:38:05.580Z,19.63
2022-10-19T09:40:34.385Z,19.95
2022-10-19T09:43:09.505Z,20.08
2022-10-19T09:45:36.313Z,19.78
2022-10-19T09:48:13.194Z,20.45
2022-10-19T09:50:43.612Z,20.77
2022-10-19T09:53:19.257Z,20.73
2022-10-19T09:55:51.134Z,20.85
2022-10-19T09:58:20.201Z,21.04
2022-10-19T10:00:56.039Z,20.97
2022-10-19T10:03:29.085Z,21.10
2022-10-19T10:05:58.202Z,21.37
2022-10-19T10:08:27.479Z,21.10
2022-10-19T10:11:15.954Z,21.22
2022-10-19T10:13:44.950Z,21.30
2022-10-19T10:16:17.161Z,21.39
2022-10-19T10:18:55.572Z,20.89
2022-10-19T10:21:34.756Z,20.34
2022-10-19T10:24:25.072Z,20.67
2022-10-19T10:26:54.608Z,20.82
2022-10-19T10:29:34.297Z,21.16
2022-10-19T10:32:19.696Z,20.51
2022-10-19T10:34:58.380Z,20.89
2022-10-19T10:37:39.253Z,20.94
2022-10-19T10:40:24.241Z,20.74
2022-10-19T10:42:53.656Z,20.85
2022-10-19T10:45:29.611Z,21.00
2022-10-19T10:47:57.116Z,20.75
2022-10-19T10:50:32.727Z,20.75
2022-10-19T10:53:04.731Z,20.76
2022-10-19T10:55:32.425Z,20.83
2022-10-19T10:58:16.735Z,20.97
2022-10-19T11:00:44.738Z,20.61
2022-10-19T11:03:25.477Z,20.63
2022-10-19T11:06:11.959Z,20.57
2022-10-19T11:08:58.768Z,20.48
2022-10-19T11:11:47.823Z,20.36
2022-10-19T11:14:26.178Z,20.58
2022-10-19T11:16:54.392Z,20.39
2022-10-19T11:19:27.313Z,20.56
2022-10-19T11:22:09.130Z,20.41
2022-10-19T11:24:56.897Z,20.48
2022-10-19T11:27:42.441Z,20.27
2022-10-19T11:30:22.013Z,20.15
2022-10-19T11:32:57.870Z,20.01
2022-10-19T11:35:53.236Z,20.24
2022-10-19T11:38:48.323Z,20.21
2022-10-19T11:41:52.179Z,19.88
2022-10-19T11:44:43.521Z,19.97
2022-10-19T11:47:23.197Z,19.56
2022-10-19T11:50:22.678Z,19.89
2022-10-19T11:53:01.537Z,19.86
2022-10-19T11:55:40.306Z,19.99
2022-10-19T11:58:35.354Z,20.02
2022-10-19T12:01:29.971Z,19.97
2022-10-19T12:03:56.816Z,19.76
2022-10-19T12:06:35.528Z,19.79
2022-10-19T12:09:28.191Z,19.71
2022-10-19T12:12:02.725Z,19.60
2022-10-19T12:14:36.225Z,19.63
2022-10-19T12:17:09.360Z,19.66
2022-10-19T12:19:44.587Z,19.74
2022-10-19T12:22:16.244Z,19.70
2022-10-19T12:24:43.469Z,19.72
2022-10-19T12:27:15.729Z,19.66
2022-10-19T12:29:48.769Z,19.81
2022-10-19T12:32:17.299Z,19.77
2022-10-19T12:34:57.888Z,19.71
2022-10-19T12:37:30.862Z,19.84
2022-10-19T12:40:32.498Z,19.67
2022-10-19T12:43:09.073Z,19.67
2022-10-19T12:45:41.728Z,19.74
2022-10-19T12:48:08.493Z,19.78
2022-10-19T12:50:49.254Z,19.84
2022-10-19T12:56:06.229Z,19.60
2022-10-19T12:58:46.586Z,19.51
2022-10-19T13:01:24.964Z,19.81
2022-10-19T13:04:14.515Z,19.54
2022-10-19T13:06:49.605Z,19.49
2022-10-19T13:09:45.079Z,19.40
2022-10-19T13:12:17.881Z,19.36
2022-10-19T13:14:54.657Z,19.40
2022-10-19T13:17:46.522Z,19.31
2022-10-19T13:20:18.508Z,19.08
2022-10-19T13:22:51.312Z,19.20
2022-10-19T13:25:33.480Z,19.05
2022-10-19T13:28:06.413Z,18.96
2022-10-19T13:30:43.868Z,18.96
2022-10-19T13:33:28.381Z,18.73
2022-10-19T13:36:02.493Z,18.77
2022-10-19T13:38:30.010Z,18.76
2022-10-19T13:41:07.459Z,18.46
2022-10-19T13:43:41.979Z,18.51
2022-10-19T13:46:12.627Z,18.48
2022-10-19T13:48:50.167Z,18.48
2022-10-19T13:51:22.665Z,18.30
2022-10-19T13:54:25.718Z,18.25
2022-10-19T13:56:55.396Z,18.19
2022-10-19T13:59:43.610Z,18.14
2022-10-19T14:02:35.890Z,18.04
2022-10-19T14:05:02.775Z,17.95
2022-10-19T14:07:33.620Z,17.80
2022-10-19T14:10:25.178Z,17.69
2022-10-19T14:12:59.911Z,17.55
2022-10-19T14:15:33.243Z,17.56
2022-10-19T14:18:03.675Z,17.46
2022-10-19T14:20:35.717Z,17.49
2022-10-19T14:23:18.455Z,17.40
2022-10-19T14:25:54.107Z,17.32
2022-10-19T14:28:22.302Z,17.23
2022-10-19T14:31:00.810Z,17.16
2022-10-19T14:33:30.218Z,17.08
2022-10-19T14:35:57.288Z,17.05
2022-10-19T14:38:35.852Z,17.01
2022-10-19T14:41:03.939Z,16.91
2022-10-19T14:43:32.830Z,16.83
2022-10-19T14:46:06.660Z,16.82
2022-10-19T14:48:48.576Z,16.75
2022-10-19T14:51:31.066Z,16.65
2022-10-19T14:54:17.913Z,16.60
2022-10-19T14:56:57.977Z,16.37
2022-10-19T14:59:28.845Z,16.43
2022-10-19T15:02:01.463Z,16.37
2022-10-19T15:04:31.829Z,16.30
2022-10-19T15:06:59.657Z,16.22
2022-10-19T15:09:48.157Z,16.11
2022-10-19T15:12:29.589Z,15.97
2022-10-19T15:14:57.249Z,15.84
2022-10-19T15:17:33.189Z,15.77
2022-10-19T15:20:01.896Z,15.67
2022-10-19T15:22:32.127Z,15.64
2022-10-19T15:24:59.171Z,15.53
2022-10-19T15:27:33.808Z,15.48
2022-10-19T15:30:04.018Z,15.39
2022-10-19T15:32:37.147Z,15.34
2022-10-19T15:35:19.220Z,15.25
2022-10-19T15:37:48.709Z,15.21
2022-10-19T15:40:23.927Z,15.14
2022-10-19T15:42:50.706Z,15.07
2022-10-19T15:45:35.525Z,15.02
2022-10-19T15:48:25.589Z,14.96
2022-10-19T15:50:53.461Z,14.88
2022-10-19T15:53:22.075Z,14.76
2022-10-19T15:55:49.432Z,14.81
2022-10-19T15:58:16.410Z,14.76
2022-10-19T16:00:43.311Z,14.76
2022-10-19T16:03:10.058Z,14.70
2022-10-19T16:05:37.439Z,14.67
2022-10-19T16:08:08.858Z,14.61
2022-10-19T16:10:39.096Z,14.56
2022-10-19T16:13:05.970Z,14.56
2022-10-19T16:15:33.497Z,14.58
2022-10-19T16:18:00.595Z,14.49
2022-10-19T16:20:28.937Z,14.46
2022-10-19T16:22:56.487Z,14.36
2022-10-19T16:25:23.539Z,14.48
2022-10-19T16:27:50.440Z,14.36
2022-10-19T16:30:18.134Z,14.35
2022-10-19T16:32:48.016Z,14.26
2022-10-19T16:35:14.857Z,14.19
2022-10-19T16:37:41.744Z,14.17
2022-10-19T16:40:09.294Z,14.16
2022-10-19T16:42:37.107Z,14.16
2022-10-19T16:45:04.672Z,14.13
2022-10-19T16:47:31.791Z,14.12
2022-10-19T16:50:04.744Z,14.02
2022-10-19T16:52:33.208Z,13.96
2022-10-19T16:55:00.735Z,13.91
2022-10-19T16:57:27.606Z,13.84
2022-10-19T16:59:55.916Z,13.77
2022-10-19T17:02:23.206Z,13.77
2022-10-19T17:04:50.032Z,13.64
2022-10-19T17:07:17.469Z,13.65
2022-10-19T17:09:44.731Z,13.53
2022-10-19T17:12:11.724Z,13.60
2022-10-19T17:14:40.899Z,13.56
2022-10-19T17:17:09.087Z,13.53
2022-10-19T17:19:37.732Z,13.48
2022-10-19T17:22:05.549Z,13.39
2022-10-19T17:24:32.884Z,13.32
2022-10-19T17:27:02.182Z,13.25
2022-10-19T17:29:29.453Z,13.17
2022-10-19T17:31:56.318Z,13.06
2022-10-19T17:34:23.519Z,12.94
2022-10-19T17:36:50.893Z,12.84
2022-10-19T17:39:21.437Z,12.78
2022-10-19T17:41:52.616Z,12.69
2022-10-19T17:44:21.024Z,12.61
2022-10-19T17:46:48.150Z,12.59
2022-10-19T17:49:16.505Z,12.52
2022-10-19T17:51:43.705Z,12.52
2022-10-19T17:54:14.341Z,12.43
2022-10-19T17:56:41.895Z,12.38
2022-10-19T17:59:09.355Z,12.34
2022-10-19T18:01:37.152Z,12.30
2022-10-19T18:04:04.980Z,12.23
2022-10-19T18:06:34.945Z,12.19
2022-10-19T18:09:05.695Z,12.15
2022-10-19T18:11:39.615Z,12.07
2022-10-19T18:14:08.328Z,11.99
2022-10-19T18:16:38.117Z,11.98
2022-10-19T18:19:05.890Z,11.88
2022-10-19T18:21:38.453Z,11.79
2022-10-19T18:24:09.043Z,11.69
2022-10-19T18:26:45.777Z,11.66
2022-10-19T18:29:25.426Z,11.57
2022-10-19T18:31:52.731Z,11.45
2022-10-19T18:34:23.237Z,11.46
2022-10-19T18:36:50.865Z,11.50
2022-10-19T18:39:18.608Z,11.58
2022-10-19T18:41:45.832Z,11.60
2022-10-19T18:44:13.323Z,11.62
2022-10-19T18:46:40.861Z,11.55
2022-10-19T18:49:08.925Z,11.46
2022-10-19T18:51:36.381Z,11.36
2022-10-19T18:54:03.944Z,11.26
2022-10-19T18:56:33.371Z,11.13
2022-10-19T18:59:00.386Z,11.18
2022-10-19T19:01:29.188Z,11.13
2022-10-19T19:03:58.781Z,11.11
2022-10-19T19:06:33.653Z,11.12
2022-10-19T19:09:03.319Z,11.08
2022-10-19T19:11:35.940Z,10.98
2022-10-19T19:14:12.157Z,10.91
2022-10-19T19:16:39.545Z,10.78
2022-10-19T19:19:07.487Z,10.69
2022-10-19T19:21:36.612Z,10.61
2022-10-19T19:24:05.994Z,10.56
2022-10-19T19:26:36.927Z,10.52
2022-10-19T19:29:04.825Z,10.52
2022-10-19T19:31:33.509Z,10.58
2022-10-19T19:34:01.223Z,10.59
2022-10-19T19:36:28.891Z,10.59
2022-10-19T19:38:56.788Z,10.51
2022-10-19T19:41:23.888Z,10.52
2022-10-19T19:43:50.958Z,10.45
2022-10-19T19:46:19.387Z,10.43
2022-10-19T19:48:47.829Z,10.46
2022-10-19T19:51:17.812Z,10.45
2022-10-19T19:53:45.434Z,10.45
2022-10-19T19:56:14.123Z,10.44
2022-10-19T19:58:41.989Z,10.41
2022-10-19T20:01:16.546Z,10.40
2022-10-19T20:03:44.237Z,10.34
2022-10-19T20:06:12.236Z,10.37
2022-10-19T20:08:39.486Z,10.32
2022-10-19T20:11:09.583Z,10.19
2022-10-19T20:13:36.901Z,10.13
2022-10-19T20:16:12.552Z,10.02
2022-10-19T20:18:47.014Z,9.86
2022-10-19T20:21:15.051Z,10.01
2022-10-19T20:23:45.998Z,9.98
2022-10-19T20:26:22.053Z,9.80
2022-10-19T20:28:50.810Z,9.75
2022-10-19T20:31:19.513Z,9.73
2022-10-19T20:33:48.156Z,9.58
2022-10-19T20:36:21.894Z,9.58
2022-10-19T20:38:52.071Z,9.42
2022-10-19T20:41:20.763Z,9.18
2022-10-19T20:43:47.588Z,9.13
2022-10-19T20:46:17.826Z,9.10
2022-10-19T20:48:45.462Z,9.14
2022-10-19T20:51:26.058Z,9.19
2022-10-19T20:53:57.340Z,9.13
2022-10-19T20:56:29.392Z,9.14
2022-10-19T20:58:58.790Z,9.02
2022-10-19T21:01:26.264Z,8.90
2022-10-19T21:03:54.994Z,8.99
2022-10-19T21:06:24.585Z,9.01
2022-10-19T21:08:52.473Z,8.59
2022-10-19T21:11:22.285Z,8.70
2022-10-19T21:13:53.128Z,8.81
2022-10-19T21:16:20.842Z,8.37
2022-10-19T21:18:48.502Z,8.50
2022-10-19T21:21:18.153Z,8.52
2022-10-19T21:23:47.036Z,8.59
2022-10-19T21:26:14.452Z,8.61
2022-10-19T21:28:46.237Z,8.27
2022-10-19T21:31:13.283Z,8.11
2022-10-19T21:33:40.030Z,8.28
2022-10-19T21:36:07.865Z,8.30
2022-10-19T21:38:34.754Z,8.38
2022-10-19T21:41:07.011Z,8.34
2022-10-19T21:43:34.148Z,8.47
2022-10-19T21:46:12.433Z,8.43
2022-10-19T21:48:39.884Z,8.29
2022-10-19T21:51:34.699Z,8.34
2022-10-19T21:54:02.270Z,8.31
2022-10-19T21:56:29.575Z,8.15
2022-10-19T21:58:56.571Z,8.22
2022-10-19T22:01:27.491Z,8.27
2022-10-19T22:04:01.217Z,8.03
2022-10-19T22:06:29.321Z,7.93
2022-10-19T22:08:57.670Z,8.15
2022-10-19T22:11:25.199Z,8.05
2022-10-19T22:14:00.192Z,8.10
2022-10-19T22:16:27.816Z,8.08
2022-10-19T22:18:55.378Z,8.09
2022-10-19T22:21:25.483Z,8.29
2022-10-19T22:24:00.656Z,8.10
2022-10-19T22:26:30.895Z,8.06
2022-10-19T22:28:59.364Z,8.00
2022-10-19T22:31:27.548Z,8.02
2022-10-19T22:33:54.314Z,8.13
2022-10-19T22:36:21.370Z,8.10
2022-10-19T22:38:48.281Z,8.23
2022-10-19T22:41:15.079Z,8.25
2022-10-19T22:43:41.831Z,8.07
2022-10-19T22:46:08.631Z,7.83
2022-10-19T22:48:35.438Z,7.94
2022-10-19T22:51:02.530Z,8.08
2022-10-19T22:53:29.512Z,8.13
2022-10-19T22:55:56.364Z,8.19
2022-10-19T22:58:23.457Z,8.06
2022-10-19T23:01:05.010Z,7.99
2022-10-19T23:03:32.266Z,8.00
2022-10-19T23:05:59.305Z,8.06
2022-10-19T23:08:26.875Z,8.00
2022-10-19T23:10:53.951Z,8.07
2022-10-19T23:13:20.791Z,7.96
2022-10-19T23:15:47.652Z,8.06
2022-10-19T23:18:14.545Z,8.07
2022-10-19T23:20:41.638Z,8.07
2022-10-19T23:23:09.224Z,8.01
2022-10-19T23:25:36.642Z,8.02
2022-10-19T23:28:03.432Z,7.93
2022-10-19T23:30:30.332Z,7.76
2022-10-19T23:32:57.257Z,7.81
2022-10-19T23:35:24.117Z,7.74
2022-10-19T23:37:50.971Z,7.79
2022-10-19T23:40:18.254Z,7.84
2022-10-19T23:42:45.084Z,7.85
2022-10-19T23:45:13.122Z,7.83
2022-10-19T23:47:40.029Z,7.86
2022-10-19T23:50:09.404Z,7.81
2022-10-19T23:52:36.417Z,7.86
2022-10-19T23:55:03.428Z,7.90
2022-10-19T23:57:30.292Z,7.89
2022-10-19T23:59:57.156Z,7.85
